createdAt,value
2019-02-18T00:01:03.408Z,14.68
2019-02-18T00:03:30.551Z,14.70
2019-02-18T00:05:57.498Z,14.65
2019-02-18T00:08:25.454Z,14.60
2019-02-18T00:10:52.808Z,14.52
2019-02-18T00:13:19.720Z,14.40
2019-02-18T00:15:46.617Z,14.29
2019-02-18T00:18:13.574Z,14.21
2019-02-18T00:20:40.474Z,14.12
2019-02-18T00:23:07.412Z,14.06
2019-02-18T00:25:34.308Z,14.04
2019-02-18T00:28:01.537Z,14.03
2019-02-18T00:30:28.678Z,13.99
2019-02-18T00:32:55.933Z,13.96
2019-02-18T00:35:22.870Z,13.95
2019-02-18T00:37:49.763Z,13.91
2019-02-18T00:40:16.732Z,13.85
2019-02-18T00:42:43.620Z,13.74
2019-02-18T00:45:10.513Z,13.69
2019-02-18T00:47:37.378Z,13.66
2019-02-18T00:50:04.272Z,13.63
2019-02-18T00:52:32.303Z,13.57
2019-02-18T00:54:59.193Z,13.49
2019-02-18T00:57:26.162Z,13.42
2019-02-18T00:59:53.089Z,13.42
2019-02-18T01:02:20.299Z,13.40
2019-02-18T01:04:47.205Z,13.32
2019-02-18T01:07:14.518Z,13.36
2019-02-18T01:09:41.465Z,13.36
2019-02-18T01:12:08.345Z,13.32
2019-02-18T01:14:35.222Z,13.33
2019-02-18T01:17:02.341Z,13.31
2019-02-18T01:19:29.573Z,13.28
2019-02-18T01:21:56.911Z,13.26
2019-02-18T01:24:23.886Z,13.27
2019-02-18T01:26:51.082Z,13.29
2019-02-18T01:29:18.358Z,13.30
2019-02-18T01:31:45.335Z,13.32
2019-02-18T01:34:12.667Z,13.37
2019-02-18T01:36:40.016Z,13.38
2019-02-18T01:39:06.970Z,13.41
2019-02-18T01:41:33.866Z,13.42
2019-02-18T01:44:01.060Z,13.39
2019-02-18T01:46:28.304Z,13.38
2019-02-18T01:48:55.547Z,13.36
2019-02-18T01:51:22.434Z,13.35
2019-02-18T01:53:49.303Z,13.36
2019-02-18T01:56:16.187Z,13.33
2019-02-18T01:58:43.453Z,13.31
2019-02-18T02:01:10.436Z,13.30
2019-02-18T02:03:37.738Z,13.28
2019-02-18T02:06:04.722Z,13.24
2019-02-18T02:08:31.681Z,13.23
2019-02-18T02:10:58.866Z,13.23
2019-02-18T02:13:25.829Z,13.22
2019-02-18T02:15:52.816Z,13.21
2019-02-18T02:18:20.022Z,13.15
2019-02-18T02:20:46.903Z,13.14
2019-02-18T02:23:13.875Z,13.12
2019-02-18T02:25:40.794Z,13.11
2019-02-18T02:28:07.755Z,13.09
2019-02-18T02:30:34.654Z,13.06
2019-02-18T02:33:01.792Z,13.00
2019-02-18T02:35:28.779Z,12.96
2019-02-18T02:38:07.072Z,12.95
2019-02-18T02:40:24.619Z,12.94
2019-02-18T02:42:51.952Z,12.91
2019-02-18T02:45:18.890Z,12.87
2019-02-18T02:47:45.793Z,12.90
2019-02-18T02:50:12.748Z,12.95
2019-02-18T02:52:39.645Z,12.96
2019-02-18T02:55:06.607Z,12.95
2019-02-18T02:57:33.917Z,12.98
2019-02-18T03:00:00.896Z,13.00
2019-02-18T03:02:28.222Z,13.05
2019-02-18T03:04:55.112Z,13.11
2019-02-18T03:07:22.069Z,13.11
2019-02-18T03:09:49.020Z,13.09
2019-02-18T03:12:15.966Z,13.03
2019-02-18T03:14:43.346Z,13.00
2019-02-18T03:17:10.255Z,13.02
2019-02-18T03:19:37.209Z,13.01
2019-02-18T03:22:04.172Z,12.95
2019-02-18T03:24:31.457Z,12.91
2019-02-18T03:26:58.724Z,12.82
2019-02-18T03:29:25.686Z,12.79
2019-02-18T03:31:52.657Z,12.78
2019-02-18T03:34:19.621Z,12.80
2019-02-18T03:36:46.576Z,12.77
2019-02-18T03:39:13.487Z,12.72
2019-02-18T03:41:41.125Z,12.66
2019-02-18T03:44:08.464Z,12.59
2019-02-18T03:46:36.481Z,12.52
2019-02-18T03:49:03.672Z,12.49
2019-02-18T03:51:30.621Z,12.48
2019-02-18T03:53:57.862Z,12.51
2019-02-18T03:56:25.137Z,12.52
2019-02-18T03:58:52.392Z,12.55
2019-02-18T04:01:19.651Z,12.55
2019-02-18T04:03:47.011Z,12.56
2019-02-18T04:06:13.941Z,12.56
2019-02-18T04:08:43.207Z,12.55
2019-02-18T04:11:09.785Z,12.50
2019-02-18T04:13:36.742Z,12.44
2019-02-18T04:16:03.710Z,12.40
2019-02-18T04:18:30.717Z,12.39
2019-02-18T04:20:57.604Z,12.33
2019-02-18T04:23:24.551Z,12.33
2019-02-18T04:25:51.757Z,12.34
2019-02-18T04:28:18.733Z,12.32
2019-02-18T04:30:46.077Z,12.30
2019-02-18T04:33:13.045Z,12.29
2019-02-18T04:35:39.989Z,12.28
2019-02-18T04:38:06.877Z,12.26
2019-02-18T04:40:34.113Z,12.19
2019-02-18T04:43:01.538Z,12.09
2019-02-18T04:45:28.481Z,12.12
2019-02-18T04:47:55.805Z,12.14
2019-02-18T04:50:22.666Z,12.10
2019-02-18T04:52:49.625Z,12.10
2019-02-18T04:55:16.553Z,12.10
2019-02-18T04:57:43.918Z,12.11
2019-02-18T05:00:10.867Z,12.11
2019-02-18T05:02:38.196Z,12.10
2019-02-18T05:05:05.446Z,12.07
2019-02-18T05:07:32.422Z,12.04
2019-02-18T05:10:00.509Z,12.07
2019-02-18T05:12:28.914Z,12.07
2019-02-18T05:14:55.829Z,12.11
2019-02-18T05:17:22.783Z,12.14
2019-02-18T05:19:49.817Z,12.16
2019-02-18T05:22:16.834Z,12.16
2019-02-18T05:24:43.741Z,12.17
2019-02-18T05:27:10.685Z,12.18
2019-02-18T05:29:37.968Z,12.19
2019-02-18T05:32:05.284Z,12.25
2019-02-18T05:34:32.244Z,12.31
2019-02-18T05:36:59.547Z,12.34
2019-02-18T05:39:26.889Z,12.37
2019-02-18T05:41:53.832Z,12.39
2019-02-18T05:44:20.834Z,12.41
2019-02-18T05:46:47.797Z,12.42
2019-02-18T05:49:14.689Z,12.40
2019-02-18T05:51:41.648Z,12.39
2019-02-18T05:54:09.516Z,12.39
2019-02-18T05:56:36.458Z,12.38
2019-02-18T05:59:03.708Z,12.39
2019-02-18T06:01:30.672Z,12.43
2019-02-18T06:04:00.104Z,12.50
2019-02-18T06:06:26.959Z,12.49
2019-02-18T06:08:53.860Z,12.51
2019-02-18T06:11:21.158Z,12.50
2019-02-18T06:13:48.556Z,12.47
2019-02-18T06:16:15.526Z,12.47
2019-02-18T06:18:42.518Z,12.49
2019-02-18T06:21:09.399Z,12.47
2019-02-18T06:23:36.326Z,12.46
2019-02-18T06:26:03.362Z,12.46
2019-02-18T06:28:30.344Z,12.47
2019-02-18T06:30:57.325Z,12.48
2019-02-18T06:33:24.281Z,12.51
2019-02-18T06:35:51.230Z,12.51
2019-02-18T06:38:18.135Z,12.49
2019-02-18T06:40:45.102Z,12.49
2019-02-18T06:43:12.051Z,12.44
2019-02-18T06:45:38.997Z,12.44
2019-02-18T06:48:05.870Z,12.44
2019-02-18T06:50:32.800Z,12.44
2019-02-18T06:52:59.744Z,12.47
2019-02-18T06:55:27.013Z,12.51
2019-02-18T06:57:53.967Z,12.62
2019-02-18T07:00:20.875Z,12.78
2019-02-18T07:02:47.773Z,12.92
2019-02-18T07:05:15.115Z,13.03
2019-02-18T07:07:42.119Z,13.12
2019-02-18T07:10:09.083Z,13.18
2019-02-18T07:12:36.039Z,13.25
2019-02-18T07:15:02.909Z,13.31
2019-02-18T07:17:29.810Z,13.39
2019-02-18T07:19:56.786Z,13.51
2019-02-18T07:22:23.729Z,13.62
2019-02-18T07:24:50.641Z,13.74
2019-02-18T07:27:17.589Z,13.80
2019-02-18T07:29:44.603Z,13.92
2019-02-18T07:32:11.586Z,14.02
2019-02-18T07:34:38.556Z,14.15
2019-02-18T07:37:05.812Z,14.26
2019-02-18T07:39:33.065Z,14.38
2019-02-18T07:41:59.984Z,14.46
2019-02-18T07:44:26.963Z,14.55
2019-02-18T07:46:53.930Z,14.59
2019-02-18T07:49:20.817Z,14.62
2019-02-18T07:51:47.773Z,14.67
2019-02-18T07:54:14.677Z,14.72
2019-02-18T07:56:41.691Z,14.70
2019-02-18T07:59:08.929Z,14.72
2019-02-18T08:01:35.888Z,14.74
2019-02-18T08:04:02.749Z,14.79
2019-02-18T08:06:29.970Z,14.80
2019-02-18T08:08:56.940Z,14.78
2019-02-18T08:11:23.977Z,14.79
2019-02-18T08:13:50.996Z,14.82
2019-02-18T08:16:17.927Z,14.83
2019-02-18T08:18:45.102Z,14.78
2019-02-18T08:21:12.464Z,14.75
2019-02-18T08:23:39.719Z,14.78
2019-02-18T08:26:07.088Z,14.87
2019-02-18T08:28:34.074Z,14.94
2019-02-18T08:31:01.387Z,14.99
2019-02-18T08:33:28.658Z,15.01
2019-02-18T08:35:55.880Z,15.06
2019-02-18T08:38:23.151Z,15.13
2019-02-18T08:40:50.087Z,15.22
2019-02-18T08:43:17.324Z,15.32
2019-02-18T08:45:44.471Z,15.40
2019-02-18T08:48:11.348Z,15.46
2019-02-18T08:50:38.373Z,15.56
2019-02-18T08:53:05.344Z,15.65
2019-02-18T08:55:32.285Z,15.70
2019-02-18T08:57:59.170Z,15.74
2019-02-18T09:00:26.144Z,15.80
2019-02-18T09:02:53.114Z,15.88
2019-02-18T09:05:20.171Z,15.97
2019-02-18T09:07:47.296Z,16.10
2019-02-18T09:10:14.198Z,16.22
2019-02-18T09:12:41.394Z,16.28
2019-02-18T09:15:08.289Z,16.29
2019-02-18T09:17:35.497Z,16.25
2019-02-18T09:20:02.847Z,16.24
2019-02-18T09:22:29.801Z,16.21
2019-02-18T09:24:57.032Z,16.30
2019-02-18T09:27:24.308Z,16.35
2019-02-18T09:29:51.562Z,16.38
2019-02-18T09:32:18.903Z,16.43
2019-02-18T09:34:45.847Z,16.47
2019-02-18T09:37:12.768Z,16.52
2019-02-18T09:39:39.654Z,16.63
2019-02-18T09:42:06.633Z,16.69
2019-02-18T09:44:33.861Z,16.75
2019-02-18T09:47:00.835Z,16.79
2019-02-18T09:49:27.716Z,16.83
2019-02-18T09:51:54.694Z,16.86
2019-02-18T09:54:22.054Z,16.89
2019-02-18T09:56:49.053Z,16.95
2019-02-18T09:59:16.339Z,16.98
2019-02-18T10:01:43.399Z,16.96
2019-02-18T10:04:10.619Z,16.94
2019-02-18T10:06:39.371Z,16.92
2019-02-18T10:09:07.995Z,16.94
2019-02-18T10:11:35.797Z,16.97
2019-02-18T10:14:03.007Z,17.00
2019-02-18T10:16:30.958Z,17.08
2019-02-18T10:18:57.944Z,17.17
2019-02-18T10:21:24.937Z,17.30
2019-02-18T10:23:52.265Z,17.42
2019-02-18T10:26:19.219Z,17.47
2019-02-18T10:28:46.536Z,17.53
2019-02-18T10:31:13.809Z,17.62
2019-02-18T10:33:40.789Z,17.66
2019-02-18T10:36:07.760Z,17.67
2019-02-18T10:38:35.039Z,17.72
2019-02-18T10:41:06.906Z,17.71
2019-02-18T10:43:32.723Z,17.69
2019-02-18T10:45:59.464Z,17.63
2019-02-18T10:48:27.127Z,17.61
2019-02-18T10:50:54.098Z,17.61
2019-02-18T10:53:21.477Z,17.57
2019-02-18T10:55:48.770Z,17.57
2019-02-18T10:58:16.160Z,17.59
2019-02-18T11:00:43.109Z,17.60
2019-02-18T11:03:10.009Z,17.63
2019-02-18T11:05:37.595Z,17.67
2019-02-18T11:08:04.549Z,17.72
2019-02-18T11:10:31.773Z,17.79
2019-02-18T11:12:59.043Z,17.81
2019-02-18T11:15:26.295Z,17.86
2019-02-18T11:17:53.642Z,17.87
2019-02-18T11:20:20.909Z,17.86
2019-02-18T11:22:48.241Z,17.88
2019-02-18T11:25:15.205Z,17.90
2019-02-18T11:27:42.171Z,17.97
2019-02-18T11:30:09.146Z,18.00
2019-02-18T11:32:36.738Z,18.00
2019-02-18T11:35:05.000Z,18.03
2019-02-18T11:37:32.290Z,18.03
2019-02-18T11:39:59.659Z,18.02
2019-02-18T11:42:27.250Z,17.99
2019-02-18T11:44:54.291Z,18.00
2019-02-18T11:47:21.250Z,18.07
2019-02-18T11:49:48.245Z,18.11
2019-02-18T11:52:15.222Z,18.13
2019-02-18T11:54:42.701Z,18.13
2019-02-18T11:57:09.647Z,18.13
2019-02-18T11:59:36.955Z,18.18
2019-02-18T12:02:04.177Z,18.25
2019-02-18T12:04:31.448Z,18.31
2019-02-18T12:06:58.409Z,18.41
2019-02-18T12:09:25.372Z,18.49
2019-02-18T12:11:52.437Z,18.54
2019-02-18T12:14:19.367Z,18.58
2019-02-18T12:16:46.328Z,18.60
2019-02-18T12:19:13.597Z,18.63
2019-02-18T12:21:41.552Z,18.64
2019-02-18T12:24:08.901Z,18.68
2019-02-18T12:26:35.870Z,18.72
2019-02-18T12:29:04.822Z,18.76
2019-02-18T12:31:32.189Z,18.80
2019-02-18T12:33:59.159Z,18.84
2019-02-18T12:36:26.462Z,18.90
2019-02-18T12:38:53.416Z,18.98
2019-02-18T12:41:20.654Z,19.04
2019-02-18T12:43:47.605Z,19.07
2019-02-18T12:46:16.023Z,19.09
2019-02-18T12:48:43.277Z,19.15
2019-02-18T12:51:10.630Z,19.22
2019-02-18T12:53:37.567Z,19.24
2019-02-18T12:56:04.914Z,19.27
2019-02-18T12:58:32.149Z,19.31
2019-02-18T13:00:59.404Z,19.36
2019-02-18T13:03:26.460Z,19.39
2019-02-18T13:05:53.416Z,19.39
2019-02-18T13:08:20.643Z,19.44
2019-02-18T13:10:47.998Z,19.47
2019-02-18T13:13:14.967Z,19.50
2019-02-18T13:15:41.942Z,19.53
2019-02-18T13:18:08.883Z,19.56
2019-02-18T13:20:36.175Z,19.63
2019-02-18T13:23:03.540Z,19.67
2019-02-18T13:25:31.003Z,19.73
2019-02-18T13:27:58.254Z,19.77
2019-02-18T13:30:25.249Z,19.81
2019-02-18T13:32:52.197Z,19.82
2019-02-18T13:35:19.496Z,19.86
2019-02-18T13:37:46.761Z,19.90
2019-02-18T13:40:14.029Z,19.89
2019-02-18T13:42:41.799Z,19.85
2019-02-18T13:45:09.143Z,19.81
2019-02-18T13:47:36.038Z,19.80
2019-02-18T13:50:02.973Z,19.79
2019-02-18T13:52:31.014Z,19.83
2019-02-18T13:54:58.361Z,19.83
2019-02-18T13:57:25.360Z,19.91
2019-02-18T13:59:52.669Z,19.98
2019-02-18T14:02:19.618Z,20.00
2019-02-18T14:04:46.568Z,20.03
2019-02-18T14:07:13.886Z,20.06
2019-02-18T14:09:41.134Z,20.09
2019-02-18T14:12:15.683Z,20.11
2019-02-18T14:14:36.981Z,20.10
2019-02-18T14:17:04.013Z,20.13
2019-02-18T14:19:31.483Z,20.20
2019-02-18T14:21:58.729Z,20.22
2019-02-18T14:24:25.701Z,20.21
2019-02-18T14:26:53.022Z,20.17
2019-02-18T14:29:19.968Z,20.20
2019-02-18T14:31:46.955Z,20.22
2019-02-18T14:34:13.918Z,20.24
2019-02-18T14:36:41.555Z,20.24
2019-02-18T14:39:09.591Z,20.26
2019-02-18T14:41:37.444Z,20.31
2019-02-18T14:44:04.722Z,20.32
2019-02-18T14:46:31.702Z,20.35
2019-02-18T14:48:59.024Z,20.38
2019-02-18T14:51:25.997Z,20.44
2019-02-18T14:53:53.728Z,20.42
2019-02-18T14:56:20.981Z,20.39
2019-02-18T14:58:47.952Z,20.39
2019-02-18T15:01:15.186Z,20.35
2019-02-18T15:03:42.144Z,20.36
2019-02-18T15:06:09.107Z,20.35
2019-02-18T15:08:36.069Z,20.33
2019-02-18T15:11:03.018Z,20.30
2019-02-18T15:13:29.987Z,20.31
2019-02-18T15:15:57.293Z,20.30
2019-02-18T15:18:25.676Z,20.26
2019-02-18T15:20:52.748Z,20.23
2019-02-18T15:23:21.391Z,20.21
2019-02-18T15:25:48.661Z,20.20
2019-02-18T15:28:17.711Z,20.15
2019-02-18T15:30:44.997Z,20.12
2019-02-18T15:33:12.359Z,20.10
2019-02-18T15:35:39.317Z,20.08
2019-02-18T15:38:06.325Z,20.10
2019-02-18T15:40:34.826Z,20.09
2019-02-18T15:43:01.794Z,20.07
2019-02-18T15:45:28.822Z,20.10
2019-02-18T15:48:01.474Z,20.11
2019-02-18T15:50:24.684Z,20.11
2019-02-18T15:52:51.735Z,20.09
2019-02-18T15:55:18.688Z,20.08
2019-02-18T15:57:46.004Z,20.05
2019-02-18T16:00:12.974Z,20.04
2019-02-18T16:02:40.010Z,20.02
2019-02-18T16:05:07.164Z,19.99
2019-02-18T16:07:34.117Z,19.97
2019-02-18T16:10:01.069Z,19.93
2019-02-18T16:12:28.336Z,19.92
2019-02-18T16:14:55.304Z,19.91
2019-02-18T16:17:22.264Z,19.88
2019-02-18T16:19:49.533Z,19.84
2019-02-18T16:22:17.193Z,19.82
2019-02-18T16:24:44.175Z,19.81
2019-02-18T16:27:11.129Z,19.74
2019-02-18T16:29:38.447Z,19.67
2019-02-18T16:32:05.796Z,19.60
2019-02-18T16:34:32.793Z,19.55
2019-02-18T16:37:00.154Z,19.48
2019-02-18T16:39:27.118Z,19.43
2019-02-18T16:41:54.398Z,19.38
2019-02-18T16:44:21.450Z,19.31
2019-02-18T16:46:48.402Z,19.26
2019-02-18T16:49:15.381Z,19.23
2019-02-18T16:51:42.707Z,19.19
2019-02-18T16:54:09.992Z,19.17
2019-02-18T16:56:36.973Z,19.13
2019-02-18T16:59:04.252Z,19.10
2019-02-18T17:01:31.214Z,19.07
2019-02-18T17:03:58.568Z,19.06
2019-02-18T17:06:25.894Z,19.03
2019-02-18T17:08:52.929Z,19.00
2019-02-18T17:11:20.347Z,18.93
2019-02-18T17:13:47.668Z,18.87
2019-02-18T17:16:14.918Z,18.79
2019-02-18T17:18:41.891Z,18.72
2019-02-18T17:21:08.923Z,18.65
2019-02-18T17:23:35.890Z,18.59
2019-02-18T17:26:02.826Z,18.57
2019-02-18T17:28:30.830Z,18.53
2019-02-18T17:30:59.056Z,18.50
2019-02-18T17:33:26.312Z,18.47
2019-02-18T17:35:53.665Z,18.42
2019-02-18T17:38:20.653Z,18.40
2019-02-18T17:40:47.958Z,18.37
2019-02-18T17:43:16.644Z,18.33
2019-02-18T17:45:44.006Z,18.24
2019-02-18T17:48:11.258Z,18.15
2019-02-18T17:50:38.518Z,18.09
2019-02-18T17:53:05.772Z,18.06
2019-02-18T17:55:33.138Z,18.03
2019-02-18T17:58:00.380Z,18.00
2019-02-18T18:00:27.792Z,17.96
2019-02-18T18:02:57.935Z,17.89
2019-02-18T18:05:25.024Z,17.83
2019-02-18T18:07:52.233Z,17.80
2019-02-18T18:10:19.511Z,17.79
2019-02-18T18:12:46.491Z,17.79
2019-02-18T18:15:13.809Z,17.77
2019-02-18T18:17:40.773Z,17.75
2019-02-18T18:20:07.732Z,17.75
2019-02-18T18:22:35.059Z,17.72
2019-02-18T18:25:02.077Z,17.69
2019-02-18T18:27:29.665Z,17.67
2019-02-18T18:29:57.013Z,17.63
2019-02-18T18:32:24.266Z,17.61
2019-02-18T18:34:52.645Z,17.55
2019-02-18T18:37:19.995Z,17.48
2019-02-18T18:39:47.251Z,17.43
2019-02-18T18:42:14.273Z,17.36
2019-02-18T18:44:41.713Z,17.29
2019-02-18T18:47:09.144Z,17.26
2019-02-18T18:49:36.106Z,17.19
2019-02-18T18:52:03.066Z,17.11
2019-02-18T18:54:30.289Z,17.06
2019-02-18T18:56:57.239Z,17.01
2019-02-18T18:59:24.271Z,16.99
2019-02-18T19:01:52.002Z,16.95
2019-02-18T19:04:18.891Z,16.91
2019-02-18T19:06:45.868Z,16.89
2019-02-18T19:09:13.154Z,16.86
2019-02-18T19:11:40.521Z,16.87
2019-02-18T19:14:08.512Z,16.83
2019-02-18T19:16:35.495Z,16.76
2019-02-18T19:19:03.190Z,16.70
2019-02-18T19:21:30.451Z,16.67
2019-02-18T19:23:57.433Z,16.62
2019-02-18T19:26:24.427Z,16.61
2019-02-18T19:28:51.734Z,16.63
2019-02-18T19:31:18.716Z,16.63
2019-02-18T19:33:45.741Z,16.62
2019-02-18T19:36:13.356Z,16.63
2019-02-18T19:38:40.313Z,16.64
2019-02-18T19:41:07.361Z,16.65
2019-02-18T19:43:34.301Z,16.65
2019-02-18T19:46:01.292Z,16.67
2019-02-18T19:48:28.586Z,16.65
2019-02-18T19:50:55.576Z,16.65
2019-02-18T19:53:22.833Z,16.61
2019-02-18T19:55:50.169Z,16.59
2019-02-18T19:58:17.579Z,16.54
2019-02-18T20:00:44.756Z,16.54
2019-02-18T20:03:12.008Z,16.52
2019-02-18T20:05:39.134Z,16.50
2019-02-18T20:08:06.395Z,16.50
2019-02-18T20:10:33.657Z,16.47
2019-02-18T20:13:00.644Z,16.42
2019-02-18T20:15:27.581Z,16.47
2019-02-18T20:17:54.521Z,16.51
2019-02-18T20:20:24.192Z,16.47
2019-02-18T20:22:51.528Z,16.37
2019-02-18T20:25:18.532Z,16.27
2019-02-18T20:27:45.991Z,16.18
2019-02-18T20:30:13.401Z,16.10
2019-02-18T20:32:40.868Z,16.03
2019-02-18T20:35:08.410Z,16.00
2019-02-18T20:37:35.363Z,15.96
2019-02-18T20:40:02.478Z,15.91
2019-02-18T20:42:29.747Z,15.87
2019-02-18T20:44:57.093Z,15.80
2019-02-18T20:47:24.118Z,15.70
2019-02-18T20:49:51.549Z,15.60
2019-02-18T20:52:18.624Z,15.55
2019-02-18T20:54:45.604Z,15.46
2019-02-18T20:57:12.617Z,15.37
2019-02-18T20:59:39.616Z,15.31
2019-02-18T21:02:08.420Z,15.31
2019-02-18T21:04:35.402Z,15.25
2019-02-18T21:07:02.434Z,15.24
2019-02-18T21:09:29.429Z,15.26
2019-02-18T21:11:56.486Z,15.25
2019-02-18T21:14:23.551Z,15.21
2019-02-18T21:16:50.842Z,15.15
2019-02-18T21:19:18.653Z,15.09
2019-02-18T21:21:45.976Z,15.08
2019-02-18T21:24:14.639Z,15.07
2019-02-18T21:26:42.017Z,15.03
2019-02-18T21:29:09.393Z,15.02
2019-02-18T21:31:36.714Z,14.96
2019-02-18T21:34:03.705Z,14.90
2019-02-18T21:36:31.004Z,14.87
2019-02-18T21:38:58.386Z,14.86
2019-02-18T21:41:25.358Z,14.86
2019-02-18T21:43:52.366Z,14.58
2019-02-18T21:46:19.758Z,14.85
2019-02-18T21:48:46.735Z,14.86
2019-02-18T21:51:14.136Z,14.88
2019-02-18T21:53:42.323Z,14.89
2019-02-18T21:56:09.677Z,14.88
2019-02-18T21:58:37.006Z,14.84
2019-02-18T22:01:04.026Z,14.84
2019-02-18T22:03:31.322Z,14.83
2019-02-18T22:05:58.980Z,14.84
2019-02-18T22:08:25.956Z,14.85
2019-02-18T22:10:52.949Z,14.82
2019-02-18T22:13:20.259Z,14.77
2019-02-18T22:15:47.241Z,14.77
2019-02-18T22:18:14.264Z,14.80
2019-02-18T22:20:41.569Z,14.84
2019-02-18T22:23:08.566Z,14.86
2019-02-18T22:25:35.911Z,14.89
2019-02-18T22:28:02.925Z,14.85
2019-02-18T22:30:29.917Z,14.83
2019-02-18T22:32:57.246Z,14.84
2019-02-18T22:35:24.608Z,14.78
2019-02-18T22:37:51.838Z,14.76
2019-02-18T22:40:19.199Z,14.72
2019-02-18T22:42:46.200Z,14.71
2019-02-18T22:45:13.212Z,14.75
2019-02-18T22:47:40.248Z,14.78
2019-02-18T22:50:07.238Z,14.75
2019-02-18T22:52:34.639Z,14.76
2019-02-18T22:55:01.660Z,14.75
2019-02-18T22:57:28.714Z,14.66
2019-02-18T22:59:55.683Z,14.64
2019-02-18T23:02:22.657Z,14.65
2019-02-18T23:04:49.678Z,14.62
2019-02-18T23:07:16.681Z,14.58
2019-02-18T23:09:43.701Z,14.49
2019-02-18T23:12:10.892Z,14.44
2019-02-18T23:14:38.170Z,14.39
2019-02-18T23:17:05.524Z,14.33
2019-02-18T23:19:32.889Z,14.29
2019-02-18T23:21:59.920Z,14.27
2019-02-18T23:24:27.996Z,14.26
2019-02-18T23:26:55.021Z,14.31
2019-02-18T23:29:22.302Z,14.34
2019-02-18T23:31:49.283Z,14.32
2019-02-18T23:34:16.285Z,14.28
2019-02-18T23:36:43.649Z,14.25
2019-02-18T23:39:10.652Z,14.25
2019-02-18T23:41:37.661Z,14.27
2019-02-18T23:44:04.996Z,14.28
2019-02-18T23:46:32.002Z,14.26
2019-02-18T23:48:59.404Z,14.23
2019-02-18T23:51:26.399Z,14.21
2019-02-18T23:53:54.007Z,14.18
2019-02-18T23:56:20.991Z,14.13
2019-02-18T23:58:48.362Z,14.14
